Time;durP1;ratioP1;P1;durP2;ratioP2;P2;SDS_P1;SDS_P2;PMS_P1;PMS_P2;Temp;Humidity;BMP_temperature;BMP_pressure;BME280_temperature;BME280_humidity;BME280_pressure;Samples;Min_cycle;Max_cycle;Signal;HPM_P1;HPM_P2
2023/12/10 00:01:13;;;;;;;0.10;0.10;;;;;;;;;;4973757;28;20134;-77
2023/12/10 00:03:40;;;;;;;0.10;0.10;;;;;;;;;;4973587;28;20079;-78
2023/12/10 00:06:07;;;;;;;0.10;0.10;;;;;;;;;;4979631;28;20100;-78
2023/12/10 00:08:40;;;;;;;0.10;0.10;;;;;;;;;;4995449;28;20063;-78
2023/12/10 00:11:06;;;;;;;0.10;0.10;;;;;;;;;;4983000;28;20058;-78
2023/12/10 00:13:33;;;;;;;0.20;0.20;;;;;;;;;;4981234;28;20058;-78
2023/12/10 00:15:59;;;;;;;0.10;0.10;;;;;;;;;;4981865;28;20057;-78
2023/12/10 00:18:25;;;;;;;0.10;0.10;;;;;;;;;;4980903;28;20051;-78
2023/12/10 00:20:52;;;;;;;0.10;0.10;;;;;;;;;;4980798;28;20107;-78
2023/12/10 00:23:19;;;;;;;0.10;0.10;;;;;;;;;;4995569;28;20094;-78
2023/12/10 00:25:46;;;;;;;0.10;0.10;;;;;;;;;;4982003;28;20050;-78
2023/12/10 00:28:13;;;;;;;0.10;0.10;;;;;;;;;;4999627;28;20509;-78
2023/12/10 00:30:41;;;;;;;0.10;0.10;;;;;;;;;;5000945;28;20504;-78
2023/12/10 00:33:08;;;;;;;0.10;0.10;;;;;;;;;;4996461;28;20038;-78
2023/12/10 00:35:35;;;;;;;0.10;0.10;;;;;;;;;;4999947;28;20486;-78
2023/12/10 00:38:02;;;;;;;0.10;0.10;;;;;;;;;;5000852;28;20166;-78
2023/12/10 00:40:28;;;;;;;0.10;0.10;;;;;;;;;;5001487;28;20055;-78
2023/12/10 00:42:58;;;;;;;1.35;1.30;;;;;;;;;;5001226;28;20082;-78
2023/12/10 00:45:25;;;;;;;0.10;0.10;;;;;;;;;;4982875;28;20050;-79
2023/12/10 00:47:51;;;;;;;0.10;0.10;;;;;;;;;;4998063;28;20876;-78
2023/12/10 00:50:18;;;;;;;0.10;0.10;;;;;;;;;;4999736;28;20053;-78
2023/12/10 00:52:45;;;;;;;0.10;0.10;;;;;;;;;;5000430;28;20046;-79
2023/12/10 00:55:12;;;;;;;0.10;0.10;;;;;;;;;;4996276;28;20058;-78
2023/12/10 00:57:38;;;;;;;0.10;0.10;;;;;;;;;;5001317;28;20054;-78
2023/12/10 01:00:06;;;;;;;0.10;0.10;;;;;;;;;;4998371;28;20086;-78
2023/12/10 01:02:33;;;;;;;0.15;0.15;;;;;;;;;;5000225;28;20117;-78
2023/12/10 01:04:59;;;;;;;0.10;0.10;;;;;;;;;;4997799;28;20105;-78
2023/12/10 01:07:26;;;;;;;0.10;0.10;;;;;;;;;;4991487;28;20528;-78
2023/12/10 01:09:52;;;;;;;0.10;0.10;;;;;;;;;;5000320;28;20057;-78
2023/12/10 01:12:19;;;;;;;0.75;0.75;;;;;;;;;;5000156;28;20101;-78
2023/12/10 01:14:45;;;;;;;0.20;0.20;;;;;;;;;;5000614;28;20055;-78
2023/12/10 01:17:15;;;;;;;0.10;0.10;;;;;;;;;;4994225;28;21183;-78
2023/12/10 01:19:41;;;;;;;0.10;0.10;;;;;;;;;;5000969;28;20086;-78
2023/12/10 01:22:08;;;;;;;2.67;2.13;;;;;;;;;;4997970;28;20099;-78
2023/12/10 01:24:34;;;;;;;0.10;0.10;;;;;;;;;;4997786;28;20062;-78
2023/12/10 01:27:01;;;;;;;0.10;0.10;;;;;;;;;;4961981;28;20047;-78
2023/12/10 01:29:27;;;;;;;0.63;0.63;;;;;;;;;;4998324;28;20058;-78
2023/12/10 01:31:53;;;;;;;0.10;0.10;;;;;;;;;;4999285;28;20062;-78
2023/12/10 01:34:20;;;;;;;0.10;0.10;;;;;;;;;;4999399;28;20106;-78
2023/12/10 01:36:47;;;;;;;0.10;0.10;;;;;;;;;;4997767;28;20075;-78
2023/12/10 01:39:15;;;;;;;0.10;0.10;;;;;;;;;;4979274;28;20043;-78
2023/12/10 01:41:41;;;;;;;0.10;0.10;;;;;;;;;;4999643;28;20142;-78
2023/12/10 01:44:09;;;;;;;0.10;0.10;;;;;;;;;;4995823;28;20050;-78
2023/12/10 01:46:36;;;;;;;0.10;0.10;;;;;;;;;;4999001;28;20065;-78
2023/12/10 01:49:04;;;;;;;0.10;0.10;;;;;;;;;;4997882;28;20051;-78
2023/12/10 01:51:30;;;;;;;0.10;0.10;;;;;;;;;;4998471;28;20047;-78
2023/12/10 01:53:57;;;;;;;0.10;0.10;;;;;;;;;;4995142;28;20560;-78
2023/12/10 01:56:24;;;;;;;0.10;0.10;;;;;;;;;;4999616;28;20054;-78
2023/12/10 01:58:50;;;;;;;0.10;0.10;;;;;;;;;;4993430;28;20051;-78
2023/12/10 02:01:17;;;;;;;0.10;0.10;;;;;;;;;;4988188;28;20169;-78
2023/12/10 02:03:45;;;;;;;0.10;0.10;;;;;;;;;;4998630;28;20069;-79
2023/12/10 02:06:12;;;;;;;0.57;0.57;;;;;;;;;;4998288;28;20058;-78
2023/12/10 02:08:39;;;;;;;0.10;0.10;;;;;;;;;;4998524;28;20065;-78
2023/12/10 02:11:06;;;;;;;0.10;0.10;;;;;;;;;;4992059;28;20039;-78
2023/12/10 02:13:32;;;;;;;0.10;0.10;;;;;;;;;;4997105;28;20042;-78
2023/12/10 02:15:59;;;;;;;0.10;0.10;;;;;;;;;;4983952;28;20063;-78
2023/12/10 02:18:25;;;;;;;0.10;0.10;;;;;;;;;;4995275;28;20114;-78
2023/12/10 02:20:52;;;;;;;0.10;0.10;;;;;;;;;;5000055;28;20058;-78
2023/12/10 02:23:18;;;;;;;0.20;0.20;;;;;;;;;;4998328;28;20054;-78
2023/12/10 02:25:45;;;;;;;0.00;0.00;;;;;;;;;;4998897;28;20051;-78
2023/12/10 02:28:11;;;;;;;0.10;0.10;;;;;;;;;;5000790;28;20078;-78
2023/12/10 02:30:38;;;;;;;0.25;0.25;;;;;;;;;;5000872;28;20640;-78
2023/12/10 02:33:04;;;;;;;0.10;0.10;;;;;;;;;;4999063;28;20043;-78
2023/12/10 02:35:31;;;;;;;0.40;0.40;;;;;;;;;;5001112;28;20047;-78
2023/12/10 02:37:58;;;;;;;0.10;0.10;;;;;;;;;;4996116;28;20038;-78
2023/12/10 02:40:25;;;;;;;0.10;0.10;;;;;;;;;;5000632;28;20039;-78
2023/12/10 02:42:51;;;;;;;0.10;0.10;;;;;;;;;;4999307;28;20085;-78
2023/12/10 02:45:18;;;;;;;0.10;0.10;;;;;;;;;;5000071;28;20035;-78
2023/12/10 02:47:44;;;;;;;0.10;0.10;;;;;;;;;;4999007;28;20047;-78
2023/12/10 02:50:11;;;;;;;0.10;0.10;;;;;;;;;;4996582;28;20138;-78
2023/12/10 02:52:38;;;;;;;0.10;0.10;;;;;;;;;;4998385;28;20663;-78
2023/12/10 02:55:05;;;;;;;0.10;0.10;;;;;;;;;;5005472;28;20154;-78
2023/12/10 02:57:32;;;;;;;0.10;0.10;;;;;;;;;;5001618;28;20166;-78
2023/12/10 02:59:58;;;;;;;0.10;0.10;;;;;;;;;;5000911;28;21517;-78
2023/12/10 03:02:25;;;;;;;0.10;0.10;;;;;;;;;;4999960;28;20051;-78
2023/12/10 03:04:53;;;;;;;0.20;0.20;;;;;;;;;;4988757;28;20051;-78
2023/12/10 03:07:19;;;;;;;0.10;0.10;;;;;;;;;;4999268;28;20057;-78
2023/12/10 03:09:46;;;;;;;0.10;0.10;;;;;;;;;;5000303;28;20031;-78
2023/12/10 03:12:12;;;;;;;1.20;1.00;;;;;;;;;;5001632;28;20828;-78
2023/12/10 03:14:39;;;;;;;2.55;1.98;;;;;;;;;;4999439;28;20051;-78
2023/12/10 03:17:06;;;;;;;0.10;0.10;;;;;;;;;;4998174;28;20063;-78
2023/12/10 03:19:32;;;;;;;9.13;1.75;;;;;;;;;;5001006;28;20069;-78
2023/12/10 03:21:58;;;;;;;0.08;0.08;;;;;;;;;;4998886;28;20800;-78
2023/12/10 03:24:25;;;;;;;0.10;0.10;;;;;;;;;;4997318;28;20063;-78
2023/12/10 03:26:51;;;;;;;0.10;0.10;;;;;;;;;;4998661;28;20146;-78
2023/12/10 03:29:18;;;;;;;1.65;1.55;;;;;;;;;;4986475;28;20071;-78
2023/12/10 03:31:44;;;;;;;0.10;0.10;;;;;;;;;;4974261;28;20063;-77
2023/12/10 03:34:11;;;;;;;0.10;0.10;;;;;;;;;;5003034;28;20096;-78
2023/12/10 03:36:37;;;;;;;0.10;0.10;;;;;;;;;;5000558;28;20050;-78
2023/12/10 03:39:04;;;;;;;0.10;0.10;;;;;;;;;;5000588;28;20070;-78
2023/12/10 03:41:31;;;;;;;0.10;0.10;;;;;;;;;;5001699;28;20055;-78
2023/12/10 03:43:57;;;;;;;0.10;0.10;;;;;;;;;;4999997;28;20027;-78
2023/12/10 03:46:24;;;;;;;0.10;0.10;;;;;;;;;;5000990;28;20894;-78
2023/12/10 03:48:51;;;;;;;0.10;0.10;;;;;;;;;;5001935;28;20051;-78
2023/12/10 03:51:18;;;;;;;0.10;0.10;;;;;;;;;;4999816;28;20422;-78
2023/12/10 03:53:45;;;;;;;0.30;0.30;;;;;;;;;;5002756;28;20111;-78
2023/12/10 03:56:11;;;;;;;0.10;0.10;;;;;;;;;;5000362;28;20082;-78
2023/12/10 03:58:38;;;;;;;0.10;0.10;;;;;;;;;;5000911;28;20047;-78
2023/12/10 04:01:04;;;;;;;0.10;0.10;;;;;;;;;;4999244;28;20058;-78
2023/12/10 04:03:31;;;;;;;0.10;0.10;;;;;;;;;;4998337;28;20702;-78
2023/12/10 04:05:57;;;;;;;0.10;0.10;;;;;;;;;;4999080;28;20063;-78
2023/12/10 04:08:24;;;;;;;0.10;0.10;;;;;;;;;;4998288;28;20973;-78
2023/12/10 04:10:50;;;;;;;0.10;0.10;;;;;;;;;;4995275;28;20457;-78
2023/12/10 04:13:17;;;;;;;0.10;0.10;;;;;;;;;;4998412;28;20066;-78
2023/12/10 04:15:44;;;;;;;0.08;0.08;;;;;;;;;;4965550;28;20055;-78
2023/12/10 04:18:11;;;;;;;0.10;0.10;;;;;;;;;;4991769;28;20998;-78
2023/12/10 04:20:38;;;;;;;0.10;0.10;;;;;;;;;;4986005;28;20078;-78
2023/12/10 04:23:04;;;;;;;0.10;0.10;;;;;;;;;;4999296;28;20063;-78
2023/12/10 04:25:30;;;;;;;2.05;1.90;;;;;;;;;;4993723;28;20043;-78
2023/12/10 04:27:57;;;;;;;0.43;0.43;;;;;;;;;;4977166;28;20055;-78
2023/12/10 04:30:24;;;;;;;0.10;0.10;;;;;;;;;;4991117;28;20035;-78
2023/12/10 04:32:51;;;;;;;0.10;0.10;;;;;;;;;;4996217;28;20054;-78
2023/12/10 04:35:18;;;;;;;0.20;0.20;;;;;;;;;;4996162;28;20563;-78
2023/12/10 04:37:44;;;;;;;0.10;0.10;;;;;;;;;;4994442;28;20050;-78
2023/12/10 04:40:11;;;;;;;3.47;1.17;;;;;;;;;;4993707;28;20142;-78
2023/12/10 04:42:41;;;;;;;0.10;0.10;;;;;;;;;;4993295;28;20047;-78
2023/12/10 04:45:08;;;;;;;0.10;0.10;;;;;;;;;;4995857;28;20050;-78
2023/12/10 04:47:35;;;;;;;0.10;0.10;;;;;;;;;;4994868;28;20113;-78
2023/12/10 04:50:02;;;;;;;0.10;0.10;;;;;;;;;;4993808;28;20818;-78
2023/12/10 04:52:30;;;;;;;0.10;0.10;;;;;;;;;;4996358;28;20039;-78
2023/12/10 04:54:59;;;;;;;0.10;0.10;;;;;;;;;;4998743;28;20142;-78
2023/12/10 04:57:26;;;;;;;0.32;0.30;;;;;;;;;;4997640;28;20051;-78
2023/12/10 04:59:52;;;;;;;0.10;0.10;;;;;;;;;;4996261;28;20062;-78
2023/12/10 05:02:19;;;;;;;1.27;0.90;;;;;;;;;;4995833;28;20876;-78
2023/12/10 05:04:45;;;;;;;0.17;0.17;;;;;;;;;;4991653;28;20055;-78
2023/12/10 05:07:12;;;;;;;1.17;1.08;;;;;;;;;;4995407;28;20078;-78
2023/12/10 05:09:38;;;;;;;0.28;0.28;;;;;;;;;;4993665;28;20059;-78
2023/12/10 05:12:05;;;;;;;1.05;0.95;;;;;;;;;;4993632;28;20109;-78
2023/12/10 05:14:31;;;;;;;0.10;0.10;;;;;;;;;;4995812;28;20840;-78
2023/12/10 05:16:58;;;;;;;0.10;0.10;;;;;;;;;;4996332;28;20611;-78
2023/12/10 05:19:25;;;;;;;0.10;0.10;;;;;;;;;;4995881;28;20066;-78
2023/12/10 05:21:52;;;;;;;0.20;0.20;;;;;;;;;;4994538;28;20069;-78
2023/12/10 05:24:18;;;;;;;0.10;0.10;;;;;;;;;;4991403;28;20141;-78
2023/12/10 05:26:45;;;;;;;0.30;0.30;;;;;;;;;;4993016;28;20073;-78
2023/12/10 05:29:11;;;;;;;0.30;0.30;;;;;;;;;;4993693;28;20058;-78
2023/12/10 05:31:39;;;;;;;0.10;0.10;;;;;;;;;;4995152;28;20058;-78
2023/12/10 05:34:05;;;;;;;0.10;0.10;;;;;;;;;;4992823;28;20863;-78
2023/12/10 05:36:32;;;;;;;0.10;0.10;;;;;;;;;;4991858;28;20064;-78
2023/12/10 05:38:58;;;;;;;0.10;0.10;;;;;;;;;;4992424;28;20059;-78
2023/12/10 05:41:24;;;;;;;0.10;0.10;;;;;;;;;;4986407;28;20051;-78
2023/12/10 05:43:51;;;;;;;0.10;0.10;;;;;;;;;;4993264;28;20057;-78
2023/12/10 05:46:17;;;;;;;0.10;0.10;;;;;;;;;;4999310;28;20138;-78
2023/12/10 05:48:44;;;;;;;0.10;0.10;;;;;;;;;;4993183;28;20106;-77
2023/12/10 05:51:10;;;;;;;0.10;0.10;;;;;;;;;;4990155;28;20903;-78
2023/12/10 05:53:37;;;;;;;0.50;0.50;;;;;;;;;;4991421;28;20118;-78
2023/12/10 05:56:03;;;;;;;0.10;0.10;;;;;;;;;;4993776;28;20110;-78
2023/12/10 05:58:30;;;;;;;0.10;0.10;;;;;;;;;;4988024;28;20096;-78
2023/12/10 06:00:57;;;;;;;0.10;0.10;;;;;;;;;;4993915;28;20058;-77
2023/12/10 06:03:24;;;;;;;0.10;0.10;;;;;;;;;;4991365;28;20054;-78
2023/12/10 06:05:51;;;;;;;0.10;0.10;;;;;;;;;;4991272;28;20142;-77
2023/12/10 06:08:18;;;;;;;0.10;0.10;;;;;;;;;;4987412;28;20612;-77
2023/12/10 06:10:44;;;;;;;0.10;0.10;;;;;;;;;;4988751;28;20109;-77
2023/12/10 06:13:11;;;;;;;0.10;0.10;;;;;;;;;;4978199;28;20065;-77
2023/12/10 06:15:37;;;;;;;0.10;0.10;;;;;;;;;;4987642;28;20047;-77
2023/12/10 06:18:04;;;;;;;0.10;0.10;;;;;;;;;;4970860;28;20062;-77
2023/12/10 06:20:30;;;;;;;0.10;0.10;;;;;;;;;;4992097;28;20545;-77
2023/12/10 06:22:57;;;;;;;0.10;0.10;;;;;;;;;;4987904;28;20047;-77
2023/12/10 06:25:23;;;;;;;0.10;0.10;;;;;;;;;;4985851;28;20522;-77
2023/12/10 06:27:50;;;;;;;0.10;0.10;;;;;;;;;;4986287;28;20539;-77
2023/12/10 06:30:16;;;;;;;0.10;0.10;;;;;;;;;;4979030;28;20054;-77
2023/12/10 06:32:45;;;;;;;0.10;0.10;;;;;;;;;;4981397;28;20133;-77
2023/12/10 06:35:12;;;;;;;0.10;0.10;;;;;;;;;;4990409;28;20078;-77
2023/12/10 06:37:39;;;;;;;0.13;0.13;;;;;;;;;;4987151;28;20130;-77
2023/12/10 06:40:05;;;;;;;0.10;0.10;;;;;;;;;;4986374;28;20078;-77
2023/12/10 06:42:32;;;;;;;0.10;0.10;;;;;;;;;;4985854;28;20101;-77
2023/12/10 06:44:59;;;;;;;0.20;0.20;;;;;;;;;;4988569;28;20059;-77
2023/12/10 06:47:26;;;;;;;0.10;0.10;;;;;;;;;;4987679;28;20088;-77
2023/12/10 06:49:52;;;;;;;0.10;0.10;;;;;;;;;;4987747;28;20061;-77
2023/12/10 06:52:19;;;;;;;0.10;0.10;;;;;;;;;;4986281;28;20158;-77
2023/12/10 06:54:45;;;;;;;0.10;0.10;;;;;;;;;;4990479;28;20055;-77
2023/12/10 06:57:12;;;;;;;0.10;0.10;;;;;;;;;;4981179;28;20065;-77
2023/12/10 06:59:38;;;;;;;0.08;0.08;;;;;;;;;;4982396;28;20054;-77
2023/12/10 07:02:06;;;;;;;0.10;0.10;;;;;;;;;;4987438;28;20106;-77
2023/12/10 07:04:33;;;;;;;0.10;0.10;;;;;;;;;;4991032;28;20105;-77
2023/12/10 07:06:59;;;;;;;0.10;0.10;;;;;;;;;;4990972;28;20058;-77
2023/12/10 07:09:26;;;;;;;0.17;0.17;;;;;;;;;;4989034;28;20055;-77
2023/12/10 07:11:52;;;;;;;0.20;0.20;;;;;;;;;;4990600;28;20517;-77
2023/12/10 07:14:19;;;;;;;0.10;0.10;;;;;;;;;;4990633;28;20058;-77
2023/12/10 07:16:45;;;;;;;0.10;0.10;;;;;;;;;;4990144;28;20066;-77
2023/12/10 07:19:12;;;;;;;0.10;0.10;;;;;;;;;;4990432;28;20051;-77
2023/12/10 07:21:38;;;;;;;0.10;0.10;;;;;;;;;;4987247;28;20533;-77
2023/12/10 07:24:05;;;;;;;0.10;0.10;;;;;;;;;;4994830;28;20085;-77
2023/12/10 07:26:31;;;;;;;0.10;0.10;;;;;;;;;;4992667;28;20083;-77
2023/12/10 07:28:58;;;;;;;0.10;0.10;;;;;;;;;;4999427;28;20055;-77
2023/12/10 07:31:24;;;;;;;0.10;0.10;;;;;;;;;;4989846;28;20871;-78
2023/12/10 07:33:51;;;;;;;0.10;0.10;;;;;;;;;;4989011;28;20614;-77
2023/12/10 07:36:17;;;;;;;0.10;0.10;;;;;;;;;;4989816;28;20054;-77
2023/12/10 07:38:44;;;;;;;0.20;0.20;;;;;;;;;;4987165;28;20117;-77
2023/12/10 07:41:11;;;;;;;0.10;0.10;;;;;;;;;;4986563;28;20046;-77
2023/12/10 07:43:38;;;;;;;0.10;0.10;;;;;;;;;;4990867;28;20047;-77
2023/12/10 07:46:04;;;;;;;0.10;0.10;;;;;;;;;;4990156;28;20055;-77
2023/12/10 07:48:33;;;;;;;0.10;0.10;;;;;;;;;;4990370;28;20057;-77
2023/12/10 07:51:01;;;;;;;0.10;0.10;;;;;;;;;;4988654;28;20544;-77
2023/12/10 07:53:27;;;;;;;0.10;0.10;;;;;;;;;;4984809;28;20055;-77
2023/12/10 07:55:54;;;;;;;0.10;0.10;;;;;;;;;;4988767;28;20058;-77
2023/12/10 07:58:22;;;;;;;0.10;0.10;;;;;;;;;;4987346;28;20588;-76
2023/12/10 08:00:48;;;;;;;0.10;0.10;;;;;;;;;;4989421;28;20460;-75
2023/12/10 08:03:15;;;;;;;0.32;0.32;;;;;;;;;;4980579;28;20109;-75
2023/12/10 08:05:42;;;;;;;0.35;0.35;;;;;;;;;;4988564;28;20141;-76
2023/12/10 08:08:08;;;;;;;0.10;0.10;;;;;;;;;;4986262;28;20126;-75
2023/12/10 08:10:35;;;;;;;0.10;0.10;;;;;;;;;;4971086;28;20523;-75
2023/12/10 08:13:01;;;;;;;0.10;0.10;;;;;;;;;;4983393;28;20137;-76
2023/12/10 08:15:28;;;;;;;0.10;0.10;;;;;;;;;;4985966;28;20059;-75
2023/12/10 08:17:54;;;;;;;0.10;0.10;;;;;;;;;;4988264;28;20085;-75
2023/12/10 08:20:21;;;;;;;0.10;0.10;;;;;;;;;;4987052;28;20529;-76
2023/12/10 08:22:50;;;;;;;0.10;0.10;;;;;;;;;;4987320;28;20059;-75
2023/12/10 08:25:16;;;;;;;0.10;0.10;;;;;;;;;;4985957;28;20055;-75
2023/12/10 08:27:43;;;;;;;0.10;0.10;;;;;;;;;;4985206;28;20581;-76
2023/12/10 08:30:10;;;;;;;0.10;0.10;;;;;;;;;;4984632;28;20878;-76
2023/12/10 08:32:36;;;;;;;0.55;0.55;;;;;;;;;;4986213;28;20073;-75
2023/12/10 08:35:04;;;;;;;0.10;0.10;;;;;;;;;;4960302;28;20122;-75
2023/12/10 08:37:31;;;;;;;0.22;0.22;;;;;;;;;;4981941;28;20134;-75
2023/12/10 08:39:57;;;;;;;8.05;2.53;;;;;;;;;;4988676;28;20432;-75
2023/12/10 08:42:25;;;;;;;0.10;0.10;;;;;;;;;;4983374;28;20054;-75
2023/12/10 08:44:52;;;;;;;0.10;0.10;;;;;;;;;;4987596;28;20058;-75
2023/12/10 08:47:19;;;;;;;0.10;0.10;;;;;;;;;;4986706;28;20059;-75
2023/12/10 08:49:45;;;;;;;0.10;0.10;;;;;;;;;;4984327;28;20054;-75
2023/12/10 08:52:12;;;;;;;0.10;0.10;;;;;;;;;;4988507;28;20059;-75
2023/12/10 08:54:38;;;;;;;0.10;0.10;;;;;;;;;;4988041;28;20047;-75
2023/12/10 08:57:04;;;;;;;0.10;0.10;;;;;;;;;;4987151;28;20059;-75
2023/12/10 08:59:31;;;;;;;0.10;0.10;;;;;;;;;;4985397;28;20130;-75
2023/12/10 09:01:58;;;;;;;0.10;0.10;;;;;;;;;;4980312;28;20063;-74
2023/12/10 09:04:24;;;;;;;0.10;0.10;;;;;;;;;;4986616;28;20597;-75
2023/12/10 09:06:51;;;;;;;0.10;0.10;;;;;;;;;;4977565;28;20051;-75
2023/12/10 09:09:17;;;;;;;0.10;0.10;;;;;;;;;;4983937;28;20063;-75
2023/12/10 09:11:44;;;;;;;0.10;0.10;;;;;;;;;;4983740;28;20159;-77
2023/12/10 09:14:11;;;;;;;0.45;0.45;;;;;;;;;;4987104;28;20053;-75
2023/12/10 09:16:38;;;;;;;0.10;0.10;;;;;;;;;;4988558;28;20153;-81
2023/12/10 09:19:04;;;;;;;0.10;0.10;;;;;;;;;;4988741;28;20502;-75
2023/12/10 09:21:31;;;;;;;0.10;0.10;;;;;;;;;;4986334;28;20110;-76
2023/12/10 09:23:57;;;;;;;0.10;0.10;;;;;;;;;;4980552;28;20497;-75
2023/12/10 09:26:25;;;;;;;0.10;0.10;;;;;;;;;;4984614;28;20058;-76
2023/12/10 09:28:52;;;;;;;0.10;0.10;;;;;;;;;;4986844;28;20081;-75
2023/12/10 09:31:19;;;;;;;0.10;0.10;;;;;;;;;;4983527;28;20055;-75
2023/12/10 09:33:45;;;;;;;0.10;0.10;;;;;;;;;;4985757;28;20058;-75
2023/12/10 09:36:12;;;;;;;0.10;0.10;;;;;;;;;;4954881;28;20061;-76
2023/12/10 09:38:38;;;;;;;0.10;0.10;;;;;;;;;;4982306;28;20588;-74
2023/12/10 09:41:05;;;;;;;0.10;0.10;;;;;;;;;;4981536;28;20847;-74
2023/12/10 09:43:31;;;;;;;0.10;0.10;;;;;;;;;;4978338;28;20147;-77
2023/12/10 09:45:58;;;;;;;0.10;0.10;;;;;;;;;;4986209;28;20114;-77
2023/12/10 09:48:25;;;;;;;0.10;0.10;;;;;;;;;;4984078;28;20065;-76
2023/12/10 09:50:53;;;;;;;0.10;0.10;;;;;;;;;;4985436;28;20065;-77
2023/12/10 09:53:21;;;;;;;0.10;0.10;;;;;;;;;;4980311;28;20773;-76
2023/12/10 09:55:48;;;;;;;0.10;0.10;;;;;;;;;;4982070;28;20109;-77
2023/12/10 09:58:14;;;;;;;0.10;0.10;;;;;;;;;;4985932;28;20580;-76
2023/12/10 10:00:41;;;;;;;0.10;0.10;;;;;;;;;;4982439;28;20055;-76
2023/12/10 10:03:10;;;;;;;0.20;0.20;;;;;;;;;;4983417;28;20520;-76
2023/12/10 10:05:36;;;;;;;0.10;0.10;;;;;;;;;;4984173;28;20058;-76
2023/12/10 10:08:03;;;;;;;0.10;0.10;;;;;;;;;;4985485;28;20815;-76
2023/12/10 10:10:29;;;;;;;0.30;0.17;;;;;;;;;;4986106;28;20149;-76
2023/12/10 10:12:56;;;;;;;0.10;0.10;;;;;;;;;;4983341;28;20098;-75
2023/12/10 10:15:29;;;;;;;0.10;0.10;;;;;;;;;;4982164;28;20050;-76
2023/12/10 10:17:57;;;;;;;0.10;0.10;;;;;;;;;;4985457;28;20524;-76
2023/12/10 10:20:24;;;;;;;0.10;0.10;;;;;;;;;;4986200;28;20051;-76
2023/12/10 10:22:51;;;;;;;0.20;0.20;;;;;;;;;;4983178;28;20445;-75
2023/12/10 10:25:17;;;;;;;0.20;0.20;;;;;;;;;;4985195;28;20817;-76
2023/12/10 10:27:44;;;;;;;17.17;1.45;;;;;;;;;;4985208;28;20086;-76
2023/12/10 10:30:11;;;;;;;0.50;0.50;;;;;;;;;;4985745;28;20058;-76
2023/12/10 10:32:39;;;;;;;0.10;0.10;;;;;;;;;;4985295;28;20543;-76
2023/12/10 10:35:06;;;;;;;0.52;0.50;;;;;;;;;;4986553;28;20902;-76
2023/12/10 10:37:33;;;;;;;0.10;0.10;;;;;;;;;;4984142;28;20562;-75
2023/12/10 10:40:00;;;;;;;0.10;0.10;;;;;;;;;;4985660;28;20917;-76
2023/12/10 10:42:26;;;;;;;0.10;0.10;;;;;;;;;;4981189;28;20454;-75
2023/12/10 10:44:53;;;;;;;0.10;0.10;;;;;;;;;;4984989;28;20162;-76
2023/12/10 10:47:20;;;;;;;0.10;0.10;;;;;;;;;;4984259;28;20145;-75
2023/12/10 10:49:57;;;;;;;0.10;0.10;;;;;;;;;;4982084;28;20145;-75
2023/12/10 10:52:44;;;;;;;0.10;0.10;;;;;;;;;;4970949;28;20058;-75
2023/12/10 10:55:11;;;;;;;1.10;1.10;;;;;;;;;;4978351;28;20055;-75
2023/12/10 10:57:39;;;;;;;0.10;0.10;;;;;;;;;;4984291;28;20101;-76
2023/12/10 11:00:17;;;;;;;0.10;0.10;;;;;;;;;;4984635;28;20054;-75
2023/12/10 11:02:49;;;;;;;0.10;0.10;;;;;;;;;;4985683;28;20509;-75
2023/12/10 11:05:42;;;;;;;0.10;0.10;;;;;;;;;;4981960;28;20142;-75
2023/12/10 11:08:10;;;;;;;0.10;0.10;;;;;;;;;;4976911;28;20055;-75
2023/12/10 11:10:41;;;;;;;0.10;0.10;;;;;;;;;;4982764;28;20162;-76
2023/12/10 11:13:08;;;;;;;0.77;0.45;;;;;;;;;;4979433;28;20110;-75
2023/12/10 11:15:34;;;;;;;0.00;0.00;;;;;;;;;;4983889;28;20078;-76
2023/12/10 11:18:01;;;;;;;0.10;0.10;;;;;;;;;;4985779;28;20528;-76
2023/12/10 11:20:28;;;;;;;0.10;0.10;;;;;;;;;;4986250;28;20055;-76
2023/12/10 11:22:55;;;;;;;0.10;0.10;;;;;;;;;;4982457;28;20059;-76
2023/12/10 11:25:21;;;;;;;0.10;0.10;;;;;;;;;;4983463;28;20082;-76
2023/12/10 11:27:48;;;;;;;0.10;0.10;;;;;;;;;;4982701;28;20107;-76
2023/12/10 11:30:14;;;;;;;0.10;0.10;;;;;;;;;;4984299;28;20580;-75
2023/12/10 11:32:43;;;;;;;0.10;0.10;;;;;;;;;;4980742;28;20102;-76
2023/12/10 11:35:09;;;;;;;0.10;0.10;;;;;;;;;;4982090;28;20165;-76
2023/12/10 11:37:36;;;;;;;0.10;0.10;;;;;;;;;;4980605;28;20198;-75
2023/12/10 11:40:03;;;;;;;0.10;0.10;;;;;;;;;;4980995;28;20517;-76
2023/12/10 11:42:29;;;;;;;0.10;0.10;;;;;;;;;;4984970;28;20058;-76
2023/12/10 11:44:56;;;;;;;0.10;0.10;;;;;;;;;;4986181;28;20055;-75
2023/12/10 11:47:23;;;;;;;0.30;0.30;;;;;;;;;;4979967;28;20540;-76
2023/12/10 11:49:50;;;;;;;0.10;0.10;;;;;;;;;;4984670;28;20055;-76
2023/12/10 11:52:16;;;;;;;0.38;0.38;;;;;;;;;;4982789;28;20062;-76
2023/12/10 11:54:43;;;;;;;0.10;0.10;;;;;;;;;;4985995;28;20920;-75
2023/12/10 11:57:10;;;;;;;0.10;0.10;;;;;;;;;;4986028;28;20760;-75
2023/12/10 11:59:37;;;;;;;0.65;0.65;;;;;;;;;;4988511;28;20082;-76
2023/12/10 12:02:03;;;;;;;0.10;0.10;;;;;;;;;;4984451;28;20519;-75
2023/12/10 12:04:30;;;;;;;0.10;0.10;;;;;;;;;;4986329;28;20055;-76
2023/12/10 12:06:56;;;;;;;0.10;0.10;;;;;;;;;;4987828;28;20057;-75
2023/12/10 12:09:23;;;;;;;0.10;0.10;;;;;;;;;;4988757;28;20051;-76
2023/12/10 12:11:50;;;;;;;0.10;0.10;;;;;;;;;;4987097;28;20054;-76
2023/12/10 12:14:18;;;;;;;0.10;0.10;;;;;;;;;;4987527;28;20058;-76
2023/12/10 12:16:47;;;;;;;0.10;0.10;;;;;;;;;;4993818;28;20149;-76
2023/12/10 12:19:26;;;;;;;0.10;0.10;;;;;;;;;;4989664;28;20061;-76
2023/12/10 12:21:55;;;;;;;0.10;0.10;;;;;;;;;;4989663;28;20118;-76
2023/12/10 12:24:22;;;;;;;0.10;0.10;;;;;;;;;;4989571;28;20604;-73
2023/12/10 12:26:50;;;;;;;0.10;0.10;;;;;;;;;;4988970;28;20058;-75
2023/12/10 12:29:16;;;;;;;0.10;0.10;;;;;;;;;;4989227;28;20051;-74
2023/12/10 12:31:42;;;;;;;0.10;0.10;;;;;;;;;;4990097;28;20059;-75
2023/12/10 12:34:29;;;;;;;0.10;0.10;;;;;;;;;;4997548;28;20501;-76
2023/12/10 12:36:56;;;;;;;0.10;0.10;;;;;;;;;;4989702;28;20133;-76
2023/12/10 12:39:24;;;;;;;0.10;0.10;;;;;;;;;;4989223;28;20062;-74
2023/12/10 12:41:51;;;;;;;0.10;0.10;;;;;;;;;;4989094;28;20536;-76
2023/12/10 12:44:17;;;;;;;0.10;0.10;;;;;;;;;;4989705;28;20058;-76
2023/12/10 12:46:44;;;;;;;0.00;0.00;;;;;;;;;;4989441;28;20050;-76
2023/12/10 12:49:10;;;;;;;0.10;0.10;;;;;;;;;;4989341;28;20061;-76
2023/12/10 12:51:37;;;;;;;0.10;0.10;;;;;;;;;;4992318;28;20090;-75
2023/12/10 12:54:05;;;;;;;0.10;0.10;;;;;;;;;;4985891;28;20075;-76
2023/12/10 12:56:40;;;;;;;0.20;0.20;;;;;;;;;;4987200;28;20145;-76
2023/12/10 12:59:07;;;;;;;0.10;0.10;;;;;;;;;;4989431;28;20098;-74
2023/12/10 13:01:33;;;;;;;0.10;0.10;;;;;;;;;;4990078;28;20066;-75
2023/12/10 13:04:00;;;;;;;0.10;0.10;;;;;;;;;;4989804;28;20046;-76
2023/12/10 13:06:29;;;;;;;0.10;0.10;;;;;;;;;;4981363;28;20057;-74
2023/12/10 13:08:56;;;;;;;0.10;0.10;;;;;;;;;;4987087;28;20061;-75
2023/12/10 13:11:22;;;;;;;0.10;0.10;;;;;;;;;;4989284;28;20058;-76
2023/12/10 13:13:49;;;;;;;0.10;0.10;;;;;;;;;;4989377;28;20509;-75
2023/12/10 13:16:15;;;;;;;0.10;0.10;;;;;;;;;;4988420;28;20051;-74
2023/12/10 13:18:42;;;;;;;0.10;0.10;;;;;;;;;;4989374;28;20051;-74
2023/12/10 13:21:09;;;;;;;0.10;0.10;;;;;;;;;;4989338;28;21108;-74
2023/12/10 13:23:35;;;;;;;0.10;0.10;;;;;;;;;;4987902;28;20061;-77
2023/12/10 13:26:02;;;;;;;0.47;0.47;;;;;;;;;;4985630;28;20131;-75
2023/12/10 13:28:28;;;;;;;0.10;0.10;;;;;;;;;;4988508;28;20154;-74
2023/12/10 13:30:55;;;;;;;0.10;0.10;;;;;;;;;;4988075;28;20055;-74
2023/12/10 13:33:22;;;;;;;0.10;0.10;;;;;;;;;;4988871;28;20059;-76
2023/12/10 13:35:49;;;;;;;0.10;0.10;;;;;;;;;;4989094;28;20159;-75
2023/12/10 13:38:16;;;;;;;0.10;0.10;;;;;;;;;;4971109;28;20821;-76
2023/12/10 13:40:42;;;;;;;0.10;0.10;;;;;;;;;;4988881;28;20150;-74
2023/12/10 13:43:09;;;;;;;1.00;1.00;;;;;;;;;;4971946;28;20145;-75
2023/12/10 13:45:36;;;;;;;0.20;0.20;;;;;;;;;;4989025;28;20058;-74
2023/12/10 13:48:03;;;;;;;0.10;0.10;;;;;;;;;;4970855;28;20153;-75
2023/12/10 13:50:29;;;;;;;2.63;0.47;;;;;;;;;;4989484;28;20058;-74
2023/12/10 13:52:56;;;;;;;0.10;0.10;;;;;;;;;;4986926;28;20058;-75
2023/12/10 13:55:22;;;;;;;0.10;0.10;;;;;;;;;;4988766;28;20082;-74
2023/12/10 13:57:49;;;;;;;0.10;0.10;;;;;;;;;;4989889;28;20058;-76
2023/12/10 14:00:15;;;;;;;0.10;0.10;;;;;;;;;;4988143;28;20054;-74
2023/12/10 14:02:42;;;;;;;0.10;0.10;;;;;;;;;;4988751;28;20058;-74
2023/12/10 14:05:08;;;;;;;0.10;0.10;;;;;;;;;;4987152;28;20046;-74
2023/12/10 14:07:35;;;;;;;0.32;0.32;;;;;;;;;;4988031;28;20054;-74
2023/12/10 14:10:01;;;;;;;0.10;0.10;;;;;;;;;;4986829;28;20146;-76
2023/12/10 14:12:28;;;;;;;0.10;0.10;;;;;;;;;;4980169;28;20520;-74
2023/12/10 14:14:54;;;;;;;0.10;0.10;;;;;;;;;;4991265;28;20110;-74
2023/12/10 14:17:21;;;;;;;0.10;0.10;;;;;;;;;;4989342;28;20059;-74
2023/12/10 14:19:47;;;;;;;0.75;0.75;;;;;;;;;;4987994;28;20141;-74
2023/12/10 14:22:14;;;;;;;0.10;0.10;;;;;;;;;;4987751;28;20109;-77
2023/12/10 14:24:41;;;;;;;0.10;0.10;;;;;;;;;;4970942;28;20440;-75
2023/12/10 14:27:07;;;;;;;0.10;0.10;;;;;;;;;;4987898;28;20142;-74
2023/12/10 14:29:33;;;;;;;0.13;0.13;;;;;;;;;;4988042;28;20067;-75
2023/12/10 14:32:00;;;;;;;2.05;1.40;;;;;;;;;;4988065;28;20525;-74
2023/12/10 14:34:26;;;;;;;0.10;0.10;;;;;;;;;;4987269;28;20058;-74
2023/12/10 14:36:55;;;;;;;0.17;0.17;;;;;;;;;;4970875;28;20058;-74
2023/12/10 14:39:24;;;;;;;0.10;0.10;;;;;;;;;;4970167;28;20113;-77
2023/12/10 14:41:51;;;;;;;0.10;0.10;;;;;;;;;;4983337;28;20133;-74